createdAt,value
2022-09-23T00:05:05.308Z,22
2022-09-23T00:20:04.623Z,22
2022-09-23T00:35:03.098Z,21.9
2022-09-23T00:50:03.572Z,21.9
2022-09-23T01:05:05.320Z,21.9
2022-09-23T01:20:05.077Z,21.8
2022-09-23T01:35:05.194Z,21.8
2022-09-23T01:50:04.479Z,21.8
2022-09-23T02:05:06.547Z,21.7
2022-09-23T02:20:02.412Z,21.7
2022-09-23T02:35:02.302Z,21.6
2022-09-23T02:50:06.352Z,21.5
2022-09-23T03:05:05.428Z,21.5
2022-09-23T03:20:03.359Z,21.4
2022-09-23T03:35:06.540Z,21.4
2022-09-23T03:50:06.598Z,21.4
2022-09-23T04:05:06.344Z,21.4
2022-09-23T04:20:02.201Z,21.4
2022-09-23T04:35:02.598Z,21.5
2022-09-23T04:50:06.542Z,21.6
2022-09-23T05:05:04.614Z,21.8
2022-09-23T05:20:06.353Z,21.9
2022-09-23T05:35:02.284Z,22.1
2022-09-23T05:50:05.229Z,22.2
2022-09-23T06:05:04.438Z,22.4
2022-09-23T06:20:05.511Z,22.5
2022-09-23T06:35:03.097Z,22.5
2022-09-23T06:50:04.244Z,22.5
2022-09-23T07:05:05.045Z,22.4
2022-09-23T07:20:03.638Z,22.3
2022-09-23T07:35:06.453Z,22.1
2022-09-23T07:50:06.191Z,22
2022-09-23T08:05:02.464Z,21.9
2022-09-23T08:20:02.202Z,21.9
2022-09-23T08:35:04.287Z,21.9
2022-09-23T08:50:04.355Z,21.9
2022-09-23T09:05:04.590Z,22
2022-09-23T09:20:05.051Z,22
2022-09-23T09:35:05.420Z,22.1
2022-09-23T09:50:04.575Z,22.1
2022-09-23T10:05:04.527Z,22.1
2022-09-23T10:20:02.077Z,22.1
2022-09-23T10:35:02.215Z,22.2
2022-09-23T10:50:03.463Z,22.2
2022-09-23T11:05:03.424Z,22.3
2022-09-23T11:20:05.546Z,22.4
2022-09-23T11:35:04.470Z,22.3
2022-09-23T11:50:02.152Z,22.3
2022-09-23T12:20:05.277Z,22.3
2022-09-23T12:35:05.563Z,22.2
2022-09-23T12:50:05.125Z,22.3
2022-09-23T13:05:02.317Z,22.3
2022-09-23T13:20:06.561Z,22.4
2022-09-23T13:35:06.172Z,22.4
2022-09-23T13:50:03.716Z,22.5
2022-09-23T14:05:04.546Z,22.5
2022-09-23T14:20:03.683Z,22.5
2022-09-23T14:35:06.459Z,22.5
2022-09-23T14:50:06.143Z,22.4
2022-09-23T15:05:04.215Z,22.4
2022-09-23T15:20:05.173Z,22.4
2022-09-23T15:35:05.447Z,22.4
2022-09-23T15:50:03.161Z,22.4
2022-09-23T16:05:06.337Z,22.4
2022-09-23T16:20:05.448Z,22.4
2022-09-23T16:35:06.311Z,22.4
2022-09-23T16:50:04.195Z,22.4
2022-09-23T17:05:06.310Z,22.4
2022-09-23T17:20:05.550Z,22.4
2022-09-23T17:35:03.234Z,22.5
2022-09-23T17:50:02.513Z,22.5
2022-09-23T18:05:05.239Z,22.6
2022-09-23T18:20:03.500Z,22.6
2022-09-23T18:35:04.568Z,22.6
2022-09-23T18:50:04.368Z,22.6
2022-09-23T19:05:05.167Z,22.6
2022-09-23T19:25:05.138Z,22.6
2022-09-23T19:40:05.248Z,22.5
2022-09-23T19:55:02.507Z,22.5
2022-09-23T20:10:05.219Z,22.5
2022-09-23T20:25:03.414Z,22.4
2022-09-23T20:40:02.242Z,22.4
2022-09-23T20:55:03.368Z,22.3
2022-09-23T21:10:04.202Z,22.3
2022-09-23T21:25:02.222Z,22.3
2022-09-23T21:40:06.231Z,22.2
2022-09-23T21:55:03.556Z,22.2
2022-09-23T22:10:02.303Z,22.2
2022-09-23T22:25:06.494Z,22.1
2022-09-23T22:40:02.495Z,22.1
2022-09-23T22:55:03.208Z,22.1
2022-09-23T23:10:02.333Z,22.1
2022-09-23T23:25:05.313Z,22.1
2022-09-23T23:40:06.083Z,22.1
2022-09-23T23:55:02.457Z,22
